Pound, Wisconsin
Current Conditions -  °F | °C
As of 1:55 PM on Thursday 30 Oct 2014 (Local Time) from KOCQ Reporting Station
Overcast Overcast  
Wind Chill: 41°   Ceiling: 9000
Heat Index: 45°   Visibility: 10mi
Dew Point: 34°   Wind: 9mph
Humidity: 65%   Direction: 270°W
Pressure: 30.02"   Gusts: NA
Location:  45.09°N, 88.03°W
Report Text: KOCQ 301855Z AUTO 27008KT 10SM SCT030 OVC090 07/01 A3002 RMK AO1 T00740011
Loading
Personal Weather Stations






























Interactive Weather Map
Tropical Storm Tracking
New forecast layout! Learn more

10-Day Weather Forecast

Advertisements
Track Severe Weather on mobile